METAR Data
IDs: Format: Raw Decoded Include TAF

Data at: 1533 UTC 03 Dec 2021

KBOK 031456Z AUTO 00000KT 10SM CLR 07/07 A3012 RMK AO2 SLP201 T00670067 55000
KBOK 031356Z AUTO 05003KT 10SM CLR 07/07 A3011 RMK AO2 SLP197 T00670067
KBOK 031256Z AUTO 05003KT 10SM CLR 07/07 A3012 RMK AO2 SLP200 T00720072
KBOK 031156Z AUTO 00000KT 10SM CLR 07/07 A3012 RMK AO2 SLP202 60000 7//// T00720072 10094 20067 58005
KBOK 031132Z AUTO 00000KT 10SM FEW004 07/07 A3012 RMK AO2
KBOK 031120Z AUTO 00000KT 2 1/2SM BR SCT002 07/07 A3013 RMK AO2
KBOK 031056Z AUTO 31003KT 1SM BR VV002 07/07 A3013 RMK AO2 VIS 3/4V4 RAE08 SLP206 P0000 T00720072
KBOK 031050Z AUTO 00000KT 1 3/4SM BR FEW002 07/07 A3013 RMK AO2 RAE08 P0000
KBOK 031013Z AUTO 00000KT 5SM BR SCT001 07/07 A3013 RMK AO2 RAE08 P0000
KBOK 031011Z AUTO 00000KT 2 1/2SM BR BKN001 07/07 A3013 RMK AO2 RAE08 P0000
KBOK 031007Z AUTO 04003KT 1SM -RA BR BKN001 07/07 A3013 RMK AO2 P0000
KBOK 030956Z AUTO 30003KT 1/2SM -RA FG OVC001 07/07 A3014 RMK AO2 RAB26 SLP207 P0000 T00670067
KBOK 030920Z AUTO 30003KT 1/4SM FG VV001 07/07 A3013 RMK AO2
KBOK 030918Z AUTO 00000KT 1/2SM FG VV002 08/08 A3013 RMK AO2
KBOK 030916Z AUTO 00000KT 1 1/2SM BR CLR 08/08 A3013 RMK AO2
KBOK 030756Z AUTO 35003KT 10SM CLR 09/09 A3015 RMK AO2 SLP210 T00940094
KBOK 030656Z AUTO 31003KT 7SM CLR 08/08 A3013 RMK AO2 RAB15E38 SLP205 P0000 T00780078 401560078
KBOK 030652Z AUTO 00000KT 5SM BR FEW001 08/08 RMK AO2 RAB15E38 P0000 401560078 $
KBOK 030637Z AUTO 00000KT 3SM -RA BR BKN001 08/08 A3013 RMK AO2 RAB15 P0000
KBOK 030633Z AUTO 00000KT 3/4SM -RA BR BKN001 08/08 A3014 RMK AO2 VIS 1/4V4 RAB15 P0000
KBOK 030616Z AUTO 00000KT 1/4SM -RA FG VV001 08/08 A3014 RMK AO2 RAB15 P0000
KBOK 030613Z AUTO 30003KT 3/4SM BR VV002 09/09 A3014 RMK AO2
KBOK 030556Z AUTO 00000KT 10SM CLR 09/09 A3014 RMK AO2 SLP207 6//// T00890089 10133 20089 51006
KBOK 030456Z AUTO 00000KT 10SM CLR 09/09 A3014 RMK AO2 SLP207 T00940094
KBOK 030356Z AUTO 00000KT 10SM CLR 11/11 A3014 RMK AO2 SLP206 T01060106
KBOK 030256Z AUTO 00000KT 10SM CLR 11/11 A3012 RMK AO2 SLP202 T01110106 58002
KBOK 030156Z AUTO 03003KT 7SM CLR 11/11 A3013 RMK AO2 SLP205 T01060106
KBOK 030056Z AUTO 10004KT 10SM CLR 12/11 A3012 RMK AO2 SLP201 T01170111
KBOK 022356Z AUTO 00000KT 10SM CLR 13/11 A3012 RMK AO2 SLP202 60000 T01280111 10156 20094 55012
KBOK 022256Z AUTO 15004KT 10SM CLR 13/11 A3012 RMK AO2 SLP202 T01280111
KBOK 022156Z AUTO 00000KT 10SM CLR 15/12 A3014 RMK AO2 SLP206 T01500122
KBOK 022056Z AUTO 10SM CLR 12/12 A3016 RMK AO2 SLP214 60000 T01220122 58014
KBOK 022014Z AUTO 00000KT 7SM SCT002 12/12 A3017 RMK AO2
KBOK 022007Z AUTO 00000KT 2SM BR BKN002 11/11 A3017 RMK AO2
KBOK 022003Z AUTO 00000KT 1SM BR OVC002 11/11 A3018 RMK AO2 VIS 1/2V5
KBOK 021956Z AUTO 1/2SM FG OVC002 11/11 A3018 RMK AO2 SLP221 T01110111 $
KBOK 021941Z AUTO VRB03KT 1/2SM FG OVC002 11/11 A3018 RMK AO2
KBOK 021936Z AUTO 29003KT 1SM BR BKN002 11/11 A3018 RMK AO2 VIS 1/4V3
KBOK 021932Z AUTO 00000KT 2 1/2SM BR BKN002 12/12 A3018 RMK AO2 VIS 1 1/2V5
KBOK 021916Z AUTO 00000KT 7SM SCT002 12/12 A3019 RMK AO2
KBOK 021901Z AUTO 00000KT 4SM BR BKN002 12/12 A3020 RMK AO2
KBOK 021858Z AUTO 00000KT 1 1/4SM BR BKN002 11/11 A3020 RMK AO2
KBOK 021856Z AUTO 00000KT 3/4SM BR BKN002 11/11 A3020 RMK AO2 RAB43E56 SLP227 P0000 T01060106
KBOK 021756Z AUTO 00000KT M1/4SM FG OVC002 09/09 A3020 RMK AO2 RAB12E41 SLP229 P0000 60000 T00940094 10094 20078 50002
KBOK 021656Z AUTO 00000KT M1/4SM FG OVC002 09/09 A3021 RMK AO2 RAE36 SLP231 P0000 T00890089
KBOK 021645Z AUTO 29004KT 1/4SM FG OVC002 09/09 A3021 RMK AO2 VIS M1/4V1 1/4 RAE36 P0000
KBOK 021641Z AUTO 00000KT 3/4SM BR OVC002 09/09 A3020 RMK AO2 RAE36 P0000
KBOK 021556Z AUTO 00000KT 1/4SM -RA FG OVC002 08/08 A3019 RMK AO2 SLP226 P0000 T00830083
KBOK 021456Z AUTO 00000KT 1/4SM -RA FG OVC002 09/09 A3019 RMK AO2 RAB13 SLP227 P0000 60000 T00890089 50010
KBOK 021356Z AUTO 00000KT 1/4SM FG OVC002 08/08 A3019 RMK AO2 RAE45 CIG 002V007 SLP227 P0000 T00780078
KBOK 021325Z AUTO 00000KT 1/4SM -RA FG BKN002 08/08 A3018 RMK AO2 P0000
KBOK 021319Z AUTO 00000KT 3/4SM BR BKN002 08/08 A3018 RMK AO2 VIS 1/4V4 RAE15 CIG 001V007 P0000
KBOK 021312Z AUTO 00000KT 1 1/2SM -RA BR BKN002 08/08 A3018 RMK AO2 VIS 3/4V4 CIG 001V007 P0000
KBOK 021310Z AUTO 00000KT 3/4SM -RA BR BKN002 08/08 A3018 RMK AO2 VIS 1/4V4 CIG 001V007 P0000
KBOK 021256Z AUTO 00000KT 1/4SM -RA FG OVC002 08/08 A3018 RMK AO2 RAB31 CIG 001V005 SLP220 P0000 T00830083
KBOK 021240Z AUTO 31003KT 1/4SM -RA FG BKN002 08/08 A3017 RMK AO2 RAB31 P0000
KBOK 021227Z AUTO 31003KT 1/2SM FG VV003 08/08 A3017 RMK AO2
KBOK 021225Z AUTO 31003KT 1 1/2SM BR FEW003 08/08 A3017 RMK AO2
KBOK 021156Z AUTO 00000KT 7SM CLR 09/09 A3016 RMK AO2 SLP214 6//// 7//// T00890089 10117 20083 58001
KBOK 021056Z AUTO 00000KT 6SM BR CLR 09/09 A3017 RMK AO2 RAE04 SLP217 P0000 T00890089
KBOK 021024Z AUTO 00000KT 4SM BR FEW004 09/09 A3018 RMK AO2 RAE04 P0000
KBOK 021012Z AUTO 00000KT 2SM BR BKN004 09/09 A3017 RMK AO2 RAE04 CIG 002V006 P0000
KBOK 021008Z AUTO 00000KT 1SM BR BKN004 09/09 A3017 RMK AO2 RAE04 CIG 001V006 P0000
KBOK 021003Z AUTO 00000KT 1/2SM -RA FG OVC004 09/09 A3017 RMK AO2 CIG 001V006 P0000
KBOK 020956Z AUTO 00000KT 1/4SM -RA FG OVC002 09/09 A3017 RMK AO2 RAB11 SLP216 P0000 T00940094
KBOK 020920Z AUTO 00000KT 1/4SM -RA FG BKN002 10/10 A3017 RMK AO2 RAB11 P0000
KBOK 020907Z AUTO 00000KT 1/2SM FG VV002 10/10 A3017 RMK AO2
KBOK 020904Z AUTO 00000KT 1SM BR VV002 10/10 A3017 RMK AO2
KBOK 020902Z AUTO 00000KT 2 1/2SM BR FEW002 09/09 A3017 RMK AO2
KBOK 020856Z AUTO 00000KT 10SM CLR 10/10 A3017 RMK AO2 SLP214 6//// T01000100 51005
KBOK 020756Z AUTO 00000KT 10SM CLR 11/11 A3017 RMK AO2 SLP214 T01060106
KBOK 020656Z AUTO 14004KT 10SM CLR 11/11 A3016 RMK AO2 SLP211 T01110111 402110106
KBOK 020556Z AUTO 00000KT 10SM CLR 11/11 A3015 RMK AO2 SLP210 T01110111 10172 20111 51011
KBOK 020456Z AUTO 00000KT 10SM CLR 12/12 A3014 RMK AO2 SLP207 T01170117
KBOK 020356Z AUTO 00000KT 9SM CLR 12/12 A3013 RMK AO2 SLP205 T01170117